sensor_id;sensor_type;location;lat;lon;timestamp;P1;durP1;ratioP1;P2;durP2;ratioP2
73168;SDS011;61379;59.732;30.468;2024-02-16T00:00:23;19.92;;;13.90;;
73168;SDS011;61379;59.732;30.468;2024-02-16T00:02:50;31.48;;;17.40;;
73168;SDS011;61379;59.732;30.468;2024-02-16T00:05:17;22.92;;;12.32;;
73168;SDS011;61379;59.732;30.468;2024-02-16T00:07:43;16.63;;;12.40;;
73168;SDS011;61379;59.732;30.468;2024-02-16T00:10:12;23.73;;;14.43;;
73168;SDS011;61379;59.732;30.468;2024-02-16T00:12:39;13.25;;;9.95;;
73168;SDS011;61379;59.732;30.468;2024-02-16T00:15:07;20.65;;;15.32;;
73168;SDS011;61379;59.732;30.468;2024-02-16T00:17:36;11.98;;;10.73;;
73168;SDS011;61379;59.732;30.468;2024-02-16T00:20:03;10.70;;;9.65;;
73168;SDS011;61379;59.732;30.468;2024-02-16T00:22:32;17.50;;;11.98;;
73168;SDS011;61379;59.732;30.468;2024-02-16T00:24:59;17.80;;;11.40;;
73168;SDS011;61379;59.732;30.468;2024-02-16T00:27:27;23.45;;;14.45;;
73168;SDS011;61379;59.732;30.468;2024-02-16T00:29:54;12.18;;;10.75;;
73168;SDS011;61379;59.732;30.468;2024-02-16T00:32:21;15.82;;;11.75;;
73168;SDS011;61379;59.732;30.468;2024-02-16T00:34:49;16.98;;;13.48;;
73168;SDS011;61379;59.732;30.468;2024-02-16T00:37:17;18.38;;;13.20;;
73168;SDS011;61379;59.732;30.468;2024-02-16T00:39:44;15.68;;;11.35;;
73168;SDS011;61379;59.732;30.468;2024-02-16T00:42:11;10.45;;;9.20;;
73168;SDS011;61379;59.732;30.468;2024-02-16T00:44:39;24.38;;;13.80;;
73168;SDS011;61379;59.732;30.468;2024-02-16T00:47:05;23.52;;;14.43;;
73168;SDS011;61379;59.732;30.468;2024-02-16T00:49:34;18.55;;;12.90;;
73168;SDS011;61379;59.732;30.468;2024-02-16T00:52:01;29.67;;;15.57;;
73168;SDS011;61379;59.732;30.468;2024-02-16T00:54:28;21.08;;;13.18;;
73168;SDS011;61379;59.732;30.468;2024-02-16T00:56:55;19.13;;;12.75;;
73168;SDS011;61379;59.732;30.468;2024-02-16T00:59:26;23.65;;;13.57;;
73168;SDS011;61379;59.732;30.468;2024-02-16T01:01:54;20.38;;;12.35;;
73168;SDS011;61379;59.732;30.468;2024-02-16T01:04:21;17.60;;;11.75;;
73168;SDS011;61379;59.732;30.468;2024-02-16T01:06:49;20.40;;;13.20;;
73168;SDS011;61379;59.732;30.468;2024-02-16T01:09:15;19.38;;;12.30;;
73168;SDS011;61379;59.732;30.468;2024-02-16T01:11:42;24.13;;;13.23;;
73168;SDS011;61379;59.732;30.468;2024-02-16T01:14:09;17.33;;;13.20;;
73168;SDS011;61379;59.732;30.468;2024-02-16T01:16:36;16.63;;;12.13;;
73168;SDS011;61379;59.732;30.468;2024-02-16T01:19:04;17.65;;;11.75;;
73168;SDS011;61379;59.732;30.468;2024-02-16T01:21:32;18.45;;;11.95;;
73168;SDS011;61379;59.732;30.468;2024-02-16T01:23:59;20.40;;;13.52;;
73168;SDS011;61379;59.732;30.468;2024-02-16T01:26:26;18.30;;;12.50;;
73168;SDS011;61379;59.732;30.468;2024-02-16T01:28:53;12.30;;;10.73;;
73168;SDS011;61379;59.732;30.468;2024-02-16T01:31:19;15.98;;;10.75;;
73168;SDS011;61379;59.732;30.468;2024-02-16T01:33:51;18.02;;;11.85;;
73168;SDS011;61379;59.732;30.468;2024-02-16T01:36:20;24.27;;;14.43;;
73168;SDS011;61379;59.732;30.468;2024-02-16T01:38:46;14.57;;;11.15;;
73168;SDS011;61379;59.732;30.468;2024-02-16T01:41:13;13.07;;;11.90;;
73168;SDS011;61379;59.732;30.468;2024-02-16T01:43:40;14.25;;;12.40;;
73168;SDS011;61379;59.732;30.468;2024-02-16T01:46:07;22.10;;;14.48;;
73168;SDS011;61379;59.732;30.468;2024-02-16T01:48:33;13.30;;;10.70;;
73168;SDS011;61379;59.732;30.468;2024-02-16T01:51:00;17.65;;;10.43;;
73168;SDS011;61379;59.732;30.468;2024-02-16T01:53:29;17.40;;;13.05;;
73168;SDS011;61379;59.732;30.468;2024-02-16T01:55:56;10.90;;;10.00;;
73168;SDS011;61379;59.732;30.468;2024-02-16T01:58:22;14.68;;;10.25;;
73168;SDS011;61379;59.732;30.468;2024-02-16T02:00:49;11.60;;;10.55;;
73168;SDS011;61379;59.732;30.468;2024-02-16T02:03:16;16.33;;;10.73;;
73168;SDS011;61379;59.732;30.468;2024-02-16T02:05:43;13.68;;;9.82;;
73168;SDS011;61379;59.732;30.468;2024-02-16T02:08:11;9.85;;;8.98;;
73168;SDS011;61379;59.732;30.468;2024-02-16T02:10:39;15.75;;;11.10;;
73168;SDS011;61379;59.732;30.468;2024-02-16T02:13:06;11.93;;;10.25;;
73168;SDS011;61379;59.732;30.468;2024-02-16T02:15:33;13.13;;;9.63;;
73168;SDS011;61379;59.732;30.468;2024-02-16T02:18:00;13.75;;;11.30;;
73168;SDS011;61379;59.732;30.468;2024-02-16T02:20:27;14.50;;;11.82;;
73168;SDS011;61379;59.732;30.468;2024-02-16T02:22:55;15.32;;;11.10;;
73168;SDS011;61379;59.732;30.468;2024-02-16T02:25:22;13.98;;;11.25;;
73168;SDS011;61379;59.732;30.468;2024-02-16T02:27:48;20.00;;;11.85;;
73168;SDS011;61379;59.732;30.468;2024-02-16T02:30:16;21.88;;;11.85;;
73168;SDS011;61379;59.732;30.468;2024-02-16T02:32:43;8.93;;;8.27;;
73168;SDS011;61379;59.732;30.468;2024-02-16T02:35:10;13.05;;;10.50;;
73168;SDS011;61379;59.732;30.468;2024-02-16T02:37:36;13.60;;;9.98;;
73168;SDS011;61379;59.732;30.468;2024-02-16T02:40:06;14.48;;;11.38;;
73168;SDS011;61379;59.732;30.468;2024-02-16T02:42:33;19.90;;;13.07;;
73168;SDS011;61379;59.732;30.468;2024-02-16T02:45:00;10.45;;;8.80;;
73168;SDS011;61379;59.732;30.468;2024-02-16T02:47:27;21.38;;;13.70;;
73168;SDS011;61379;59.732;30.468;2024-02-16T02:49:54;14.45;;;12.02;;
73168;SDS011;61379;59.732;30.468;2024-02-16T02:52:20;17.70;;;11.95;;
73168;SDS011;61379;59.732;30.468;2024-02-16T02:54:47;10.20;;;9.20;;
73168;SDS011;61379;59.732;30.468;2024-02-16T02:57:15;18.73;;;11.70;;
73168;SDS011;61379;59.732;30.468;2024-02-16T02:59:42;11.90;;;10.43;;
73168;SDS011;61379;59.732;30.468;2024-02-16T03:02:10;13.30;;;10.57;;
73168;SDS011;61379;59.732;30.468;2024-02-16T03:04:37;15.52;;;11.65;;
73168;SDS011;61379;59.732;30.468;2024-02-16T03:07:04;14.93;;;11.73;;
73168;SDS011;61379;59.732;30.468;2024-02-16T03:09:30;14.75;;;10.63;;
73168;SDS011;61379;59.732;30.468;2024-02-16T03:11:57;17.23;;;11.05;;
73168;SDS011;61379;59.732;30.468;2024-02-16T03:14:25;9.48;;;8.57;;
73168;SDS011;61379;59.732;30.468;2024-02-16T03:16:52;14.80;;;10.15;;
73168;SDS011;61379;59.732;30.468;2024-02-16T03:19:19;12.55;;;11.10;;
73168;SDS011;61379;59.732;30.468;2024-02-16T03:21:47;15.82;;;10.85;;
73168;SDS011;61379;59.732;30.468;2024-02-16T03:24:14;10.13;;;8.20;;
73168;SDS011;61379;59.732;30.468;2024-02-16T03:26:40;10.88;;;9.68;;
73168;SDS011;61379;59.732;30.468;2024-02-16T03:29:07;13.93;;;10.88;;
73168;SDS011;61379;59.732;30.468;2024-02-16T03:31:35;19.65;;;10.80;;
73168;SDS011;61379;59.732;30.468;2024-02-16T03:34:02;15.88;;;9.20;;
73168;SDS011;61379;59.732;30.468;2024-02-16T03:36:29;16.17;;;10.90;;
73168;SDS011;61379;59.732;30.468;2024-02-16T03:38:56;13.25;;;10.57;;
73168;SDS011;61379;59.732;30.468;2024-02-16T03:41:22;10.30;;;9.27;;
73168;SDS011;61379;59.732;30.468;2024-02-16T03:43:49;25.27;;;14.52;;
73168;SDS011;61379;59.732;30.468;2024-02-16T03:46:16;12.07;;;10.80;;
73168;SDS011;61379;59.732;30.468;2024-02-16T03:48:44;10.38;;;9.32;;
73168;SDS011;61379;59.732;30.468;2024-02-16T03:51:11;9.43;;;8.73;;
73168;SDS011;61379;59.732;30.468;2024-02-16T03:53:38;10.95;;;9.23;;
73168;SDS011;61379;59.732;30.468;2024-02-16T03:56:05;9.65;;;8.75;;
73168;SDS011;61379;59.732;30.468;2024-02-16T03:58:32;11.68;;;8.48;;
73168;SDS011;61379;59.732;30.468;2024-02-16T04:00:59;15.35;;;9.38;;
73168;SDS011;61379;59.732;30.468;2024-02-16T04:03:26;7.85;;;7.18;;
73168;SDS011;61379;59.732;30.468;2024-02-16T04:05:54;17.73;;;11.63;;
73168;SDS011;61379;59.732;30.468;2024-02-16T04:08:21;10.07;;;9.07;;
73168;SDS011;61379;59.732;30.468;2024-02-16T04:10:48;13.52;;;10.65;;
73168;SDS011;61379;59.732;30.468;2024-02-16T04:13:14;12.13;;;9.32;;
73168;SDS011;61379;59.732;30.468;2024-02-16T04:15:41;10.10;;;8.57;;
73168;SDS011;61379;59.732;30.468;2024-02-16T04:18:08;16.13;;;10.68;;
73168;SDS011;61379;59.732;30.468;2024-02-16T04:20:35;15.45;;;10.90;;
73168;SDS011;61379;59.732;30.468;2024-02-16T04:23:04;9.80;;;8.93;;
73168;SDS011;61379;59.732;30.468;2024-02-16T04:25:31;12.25;;;9.77;;
73168;SDS011;61379;59.732;30.468;2024-02-16T04:27:58;15.48;;;10.75;;
73168;SDS011;61379;59.732;30.468;2024-02-16T04:30:24;11.63;;;8.88;;
73168;SDS011;61379;59.732;30.468;2024-02-16T04:32:51;12.73;;;8.32;;
73168;SDS011;61379;59.732;30.468;2024-02-16T04:35:18;9.65;;;8.75;;
73168;SDS011;61379;59.732;30.468;2024-02-16T04:37:45;9.88;;;8.85;;
73168;SDS011;61379;59.732;30.468;2024-02-16T04:40:13;16.17;;;9.07;;
73168;SDS011;61379;59.732;30.468;2024-02-16T04:42:40;13.82;;;9.68;;
73168;SDS011;61379;59.732;30.468;2024-02-16T04:45:10;19.38;;;12.48;;
73168;SDS011;61379;59.732;30.468;2024-02-16T04:47:37;14.63;;;9.43;;
73168;SDS011;61379;59.732;30.468;2024-02-16T04:50:04;9.90;;;8.75;;
73168;SDS011;61379;59.732;30.468;2024-02-16T04:52:35;10.77;;;8.52;;
73168;SDS011;61379;59.732;30.468;2024-02-16T04:55:02;22.60;;;11.52;;
73168;SDS011;61379;59.732;30.468;2024-02-16T04:57:31;6.93;;;6.32;;
73168;SDS011;61379;59.732;30.468;2024-02-16T04:59:57;12.82;;;8.52;;
73168;SDS011;61379;59.732;30.468;2024-02-16T05:02:23;8.70;;;7.75;;
73168;SDS011;61379;59.732;30.468;2024-02-16T05:04:50;11.18;;;8.35;;
73168;SDS011;61379;59.732;30.468;2024-02-16T05:07:17;8.40;;;7.53;;
73168;SDS011;61379;59.732;30.468;2024-02-16T05:09:45;7.93;;;7.18;;
73168;SDS011;61379;59.732;30.468;2024-02-16T05:12:11;11.30;;;7.25;;
73168;SDS011;61379;59.732;30.468;2024-02-16T05:14:39;7.90;;;7.10;;
73168;SDS011;61379;59.732;30.468;2024-02-16T05:17:06;8.80;;;7.30;;
73168;SDS011;61379;59.732;30.468;2024-02-16T05:19:33;12.43;;;9.07;;
73168;SDS011;61379;59.732;30.468;2024-02-16T05:22:02;11.18;;;7.07;;
73168;SDS011;61379;59.732;30.468;2024-02-16T05:24:29;9.75;;;8.77;;
73168;SDS011;61379;59.732;30.468;2024-02-16T05:26:55;8.20;;;7.60;;
73168;SDS011;61379;59.732;30.468;2024-02-16T05:29:22;12.88;;;9.20;;
73168;SDS011;61379;59.732;30.468;2024-02-16T05:31:52;13.05;;;8.13;;
73168;SDS011;61379;59.732;30.468;2024-02-16T05:34:19;9.57;;;8.73;;
73168;SDS011;61379;59.732;30.468;2024-02-16T05:36:45;8.60;;;7.90;;
73168;SDS011;61379;59.732;30.468;2024-02-16T05:39:13;8.65;;;7.85;;
73168;SDS011;61379;59.732;30.468;2024-02-16T05:41:51;9.52;;;8.60;;
73168;SDS011;61379;59.732;30.468;2024-02-16T05:44:18;13.73;;;8.55;;
73168;SDS011;61379;59.732;30.468;2024-02-16T05:46:45;10.48;;;9.60;;
73168;SDS011;61379;59.732;30.468;2024-02-16T05:49:13;16.73;;;10.27;;
73168;SDS011;61379;59.732;30.468;2024-02-16T05:51:40;9.65;;;8.85;;
73168;SDS011;61379;59.732;30.468;2024-02-16T05:54:07;9.27;;;7.70;;
73168;SDS011;61379;59.732;30.468;2024-02-16T05:56:34;9.55;;;8.73;;
73168;SDS011;61379;59.732;30.468;2024-02-16T05:59:02;12.73;;;8.63;;
73168;SDS011;61379;59.732;30.468;2024-02-16T06:01:29;7.75;;;7.05;;
73168;SDS011;61379;59.732;30.468;2024-02-16T06:03:55;12.65;;;8.18;;
73168;SDS011;61379;59.732;30.468;2024-02-16T06:06:24;9.75;;;8.68;;
73168;SDS011;61379;59.732;30.468;2024-02-16T06:08:50;12.45;;;9.65;;
73168;SDS011;61379;59.732;30.468;2024-02-16T06:11:17;10.68;;;8.18;;
73168;SDS011;61379;59.732;30.468;2024-02-16T06:13:44;9.02;;;8.25;;
73168;SDS011;61379;59.732;30.468;2024-02-16T06:16:10;8.68;;;7.93;;
73168;SDS011;61379;59.732;30.468;2024-02-16T06:18:37;16.52;;;10.57;;
73168;SDS011;61379;59.732;30.468;2024-02-16T06:21:04;8.48;;;7.75;;
73168;SDS011;61379;59.732;30.468;2024-02-16T06:23:32;6.85;;;6.25;;
73168;SDS011;61379;59.732;30.468;2024-02-16T06:25:59;9.88;;;9.00;;
73168;SDS011;61379;59.732;30.468;2024-02-16T06:28:26;9.40;;;8.70;;
73168;SDS011;61379;59.732;30.468;2024-02-16T06:30:53;9.80;;;8.95;;
73168;SDS011;61379;59.732;30.468;2024-02-16T06:33:20;10.27;;;8.90;;
73168;SDS011;61379;59.732;30.468;2024-02-16T06:35:46;9.43;;;8.52;;
73168;SDS011;61379;59.732;30.468;2024-02-16T06:38:15;8.95;;;8.15;;
73168;SDS011;61379;59.732;30.468;2024-02-16T06:40:43;11.45;;;9.27;;
73168;SDS011;61379;59.732;30.468;2024-02-16T06:43:10;9.25;;;8.45;;
73168;SDS011;61379;59.732;30.468;2024-02-16T06:45:37;8.48;;;7.80;;
73168;SDS011;61379;59.732;30.468;2024-02-16T06:48:03;7.95;;;7.45;;
73168;SDS011;61379;59.732;30.468;2024-02-16T06:50:29;9.18;;;8.27;;
73168;SDS011;61379;59.732;30.468;2024-02-16T06:52:56;9.32;;;8.13;;
73168;SDS011;61379;59.732;30.468;2024-02-16T06:55:23;9.77;;;8.88;;
73168;SDS011;61379;59.732;30.468;2024-02-16T06:57:51;9.77;;;8.60;;
73168;SDS011;61379;59.732;30.468;2024-02-16T07:00:18;19.13;;;12.43;;
73168;SDS011;61379;59.732;30.468;2024-02-16T07:02:45;11.45;;;8.90;;
73168;SDS011;61379;59.732;30.468;2024-02-16T07:05:12;10.20;;;8.35;;
73168;SDS011;61379;59.732;30.468;2024-02-16T07:07:38;7.93;;;7.32;;
73168;SDS011;61379;59.732;30.468;2024-02-16T07:10:05;8.15;;;7.32;;
73168;SDS011;61379;59.732;30.468;2024-02-16T07:12:32;9.00;;;8.15;;
73168;SDS011;61379;59.732;30.468;2024-02-16T07:15:00;8.13;;;7.43;;
73168;SDS011;61379;59.732;30.468;2024-02-16T07:17:27;12.68;;;8.98;;
73168;SDS011;61379;59.732;30.468;2024-02-16T07:19:54;8.65;;;7.85;;
73168;SDS011;61379;59.732;30.468;2024-02-16T07:22:21;8.00;;;7.13;;
73168;SDS011;61379;59.732;30.468;2024-02-16T07:24:48;8.52;;;7.93;;
73168;SDS011;61379;59.732;30.468;2024-02-16T07:27:14;13.38;;;9.63;;
73168;SDS011;61379;59.732;30.468;2024-02-16T07:29:42;6.90;;;6.40;;
73168;SDS011;61379;59.732;30.468;2024-02-16T07:32:10;10.85;;;9.65;;
73168;SDS011;61379;59.732;30.468;2024-02-16T07:34:37;8.40;;;7.70;;
73168;SDS011;61379;59.732;30.468;2024-02-16T07:37:04;8.27;;;7.57;;
73168;SDS011;61379;59.732;30.468;2024-02-16T07:39:33;9.88;;;9.05;;
73168;SDS011;61379;59.732;30.468;2024-02-16T07:41:59;15.98;;;10.95;;
73168;SDS011;61379;59.732;30.468;2024-02-16T07:44:27;9.63;;;8.68;;
73168;SDS011;61379;59.732;30.468;2024-02-16T07:46:54;8.57;;;7.97;;
73168;SDS011;61379;59.732;30.468;2024-02-16T07:49:23;9.80;;;7.72;;
73168;SDS011;61379;59.732;30.468;2024-02-16T07:51:49;8.88;;;8.02;;
73168;SDS011;61379;59.732;30.468;2024-02-16T07:54:16;8.57;;;7.80;;
73168;SDS011;61379;59.732;30.468;2024-02-16T07:56:43;9.35;;;8.23;;
73168;SDS011;61379;59.732;30.468;2024-02-16T07:59:09;9.63;;;8.57;;
73168;SDS011;61379;59.732;30.468;2024-02-16T08:01:36;10.98;;;9.88;;
73168;SDS011;61379;59.732;30.468;2024-02-16T08:04:04;9.02;;;8.18;;
73168;SDS011;61379;59.732;30.468;2024-02-16T08:06:32;8.77;;;8.07;;
73168;SDS011;61379;59.732;30.468;2024-02-16T08:08:59;13.05;;;9.68;;
73168;SDS011;61379;59.732;30.468;2024-02-16T08:11:25;10.25;;;9.30;;
73168;SDS011;61379;59.732;30.468;2024-02-16T08:13:52;12.20;;;10.93;;
73168;SDS011;61379;59.732;30.468;2024-02-16T08:16:20;12.98;;;10.75;;
73168;SDS011;61379;59.732;30.468;2024-02-16T08:18:47;18.15;;;12.90;;
73168;SDS011;61379;59.732;30.468;2024-02-16T08:21:14;17.92;;;11.93;;
73168;SDS011;61379;59.732;30.468;2024-02-16T08:23:42;13.70;;;12.38;;
73168;SDS011;61379;59.732;30.468;2024-02-16T08:26:09;10.75;;;9.85;;
73168;SDS011;61379;59.732;30.468;2024-02-16T08:28:35;13.27;;;12.00;;
73168;SDS011;61379;59.732;30.468;2024-02-16T08:31:04;13.93;;;12.43;;
73168;SDS011;61379;59.732;30.468;2024-02-16T08:33:32;16.25;;;13.10;;
73168;SDS011;61379;59.732;30.468;2024-02-16T08:36:02;17.65;;;14.70;;
73168;SDS011;61379;59.732;30.468;2024-02-16T08:38:33;17.55;;;14.85;;
73168;SDS011;61379;59.732;30.468;2024-02-16T08:41:03;11.38;;;10.38;;
73168;SDS011;61379;59.732;30.468;2024-02-16T08:43:30;11.40;;;10.25;;
73168;SDS011;61379;59.732;30.468;2024-02-16T08:46:02;11.85;;;10.73;;
73168;SDS011;61379;59.732;30.468;2024-02-16T08:51:00;12.35;;;11.25;;
73168;SDS011;61379;59.732;30.468;2024-02-16T08:53:29;12.13;;;11.13;;
73168;SDS011;61379;59.732;30.468;2024-02-16T08:55:56;13.13;;;11.80;;
73168;SDS011;61379;59.732;30.468;2024-02-16T08:58:24;12.57;;;11.02;;
73168;SDS011;61379;59.732;30.468;2024-02-16T09:00:51;14.88;;;13.70;;
73168;SDS011;61379;59.732;30.468;2024-02-16T09:03:17;14.48;;;12.98;;
73168;SDS011;61379;59.732;30.468;2024-02-16T09:05:44;13.63;;;12.32;;
73168;SDS011;61379;59.732;30.468;2024-02-16T09:08:11;13.95;;;12.95;;
73168;SDS011;61379;59.732;30.468;2024-02-16T09:10:38;14.43;;;13.32;;
73168;SDS011;61379;59.732;30.468;2024-02-16T09:13:05;13.35;;;12.32;;
73168;SDS011;61379;59.732;30.468;2024-02-16T09:15:34;12.65;;;11.75;;
73168;SDS011;61379;59.732;30.468;2024-02-16T09:18:02;11.48;;;10.73;;
73168;SDS011;61379;59.732;30.468;2024-02-16T09:20:28;12.73;;;11.73;;
73168;SDS011;61379;59.732;30.468;2024-02-16T09:22:55;12.40;;;11.32;;
73168;SDS011;61379;59.732;30.468;2024-02-16T09:25:22;14.95;;;13.52;;
73168;SDS011;61379;59.732;30.468;2024-02-16T09:27:49;13.45;;;12.43;;
73168;SDS011;61379;59.732;30.468;2024-02-16T09:30:16;13.93;;;12.63;;
73168;SDS011;61379;59.732;30.468;2024-02-16T09:32:44;14.02;;;12.90;;
73168;SDS011;61379;59.732;30.468;2024-02-16T09:35:11;12.93;;;11.93;;
73168;SDS011;61379;59.732;30.468;2024-02-16T09:37:38;14.05;;;12.75;;
73168;SDS011;61379;59.732;30.468;2024-02-16T09:40:06;11.77;;;10.90;;
73168;SDS011;61379;59.732;30.468;2024-02-16T09:42:34;14.73;;;13.52;;
73168;SDS011;61379;59.732;30.468;2024-02-16T09:45:04;13.85;;;12.75;;
73168;SDS011;61379;59.732;30.468;2024-02-16T09:47:31;12.43;;;11.63;;
73168;SDS011;61379;59.732;30.468;2024-02-16T09:50:01;13.35;;;12.35;;
73168;SDS011;61379;59.732;30.468;2024-02-16T09:52:28;13.52;;;12.38;;
73168;SDS011;61379;59.732;30.468;2024-02-16T09:54:55;13.82;;;12.50;;
73168;SDS011;61379;59.732;30.468;2024-02-16T09:57:22;15.48;;;14.02;;
73168;SDS011;61379;59.732;30.468;2024-02-16T09:59:49;13.52;;;12.43;;
73168;SDS011;61379;59.732;30.468;2024-02-16T10:02:16;13.70;;;12.55;;
73168;SDS011;61379;59.732;30.468;2024-02-16T10:04:42;13.40;;;12.38;;
73168;SDS011;61379;59.732;30.468;2024-02-16T10:07:11;13.80;;;12.70;;
73168;SDS011;61379;59.732;30.468;2024-02-16T10:09:38;14.13;;;13.15;;
73168;SDS011;61379;59.732;30.468;2024-02-16T10:12:05;13.48;;;12.48;;
73168;SDS011;61379;59.732;30.468;2024-02-16T10:14:32;13.98;;;12.82;;
73168;SDS011;61379;59.732;30.468;2024-02-16T10:16:59;14.77;;;13.48;;
73168;SDS011;61379;59.732;30.468;2024-02-16T10:19:26;14.18;;;12.90;;
73168;SDS011;61379;59.732;30.468;2024-02-16T10:21:52;14.13;;;12.98;;
73168;SDS011;61379;59.732;30.468;2024-02-16T10:24:22;13.73;;;12.73;;
73168;SDS011;61379;59.732;30.468;2024-02-16T10:26:49;14.75;;;13.55;;
73168;SDS011;61379;59.732;30.468;2024-02-16T10:29:17;14.80;;;13.65;;
73168;SDS011;61379;59.732;30.468;2024-02-16T10:31:45;14.48;;;13.27;;
73168;SDS011;61379;59.732;30.468;2024-02-16T10:34:11;14.20;;;13.20;;
73168;SDS011;61379;59.732;30.468;2024-02-16T10:36:39;14.50;;;13.25;;
73168;SDS011;61379;59.732;30.468;2024-02-16T10:39:07;14.60;;;13.52;;
73168;SDS011;61379;59.732;30.468;2024-02-16T10:41:37;15.02;;;13.85;;
73168;SDS011;61379;59.732;30.468;2024-02-16T10:44:04;13.73;;;12.32;;
73168;SDS011;61379;59.732;30.468;2024-02-16T10:46:31;15.50;;;14.30;;
73168;SDS011;61379;59.732;30.468;2024-02-16T10:48:58;13.80;;;12.73;;
73168;SDS011;61379;59.732;30.468;2024-02-16T10:51:27;13.40;;;12.20;;
73168;SDS011;61379;59.732;30.468;2024-02-16T10:53:56;11.85;;;10.75;;
73168;SDS011;61379;59.732;30.468;2024-02-16T10:56:27;12.15;;;11.25;;
73168;SDS011;61379;59.732;30.468;2024-02-16T10:58:56;13.07;;;12.07;;
73168;SDS011;61379;59.732;30.468;2024-02-16T11:01:26;13.15;;;12.15;;
73168;SDS011;61379;59.732;30.468;2024-02-16T11:04:00;13.85;;;12.65;;
73168;SDS011;61379;59.732;30.468;2024-02-16T11:06:27;13.75;;;12.45;;
73168;SDS011;61379;59.732;30.468;2024-02-16T11:08:53;12.60;;;11.65;;
73168;SDS011;61379;59.732;30.468;2024-02-16T11:11:23;13.65;;;12.68;;
73168;SDS011;61379;59.732;30.468;2024-02-16T11:13:50;13.90;;;12.77;;
73168;SDS011;61379;59.732;30.468;2024-02-16T11:16:22;13.93;;;12.82;;
73168;SDS011;61379;59.732;30.468;2024-02-16T11:18:49;15.68;;;14.45;;
73168;SDS011;61379;59.732;30.468;2024-02-16T11:21:17;15.07;;;13.88;;
73168;SDS011;61379;59.732;30.468;2024-02-16T11:23:44;15.05;;;13.82;;
73168;SDS011;61379;59.732;30.468;2024-02-16T11:26:11;13.80;;;12.80;;
73168;SDS011;61379;59.732;30.468;2024-02-16T11:28:39;14.38;;;13.18;;
73168;SDS011;61379;59.732;30.468;2024-02-16T11:31:06;13.50;;;12.48;;
73168;SDS011;61379;59.732;30.468;2024-02-16T11:33:35;14.50;;;13.38;;
73168;SDS011;61379;59.732;30.468;2024-02-16T11:36:04;15.65;;;14.27;;
73168;SDS011;61379;59.732;30.468;2024-02-16T11:38:33;14.73;;;13.52;;
73168;SDS011;61379;59.732;30.468;2024-02-16T11:41:01;13.63;;;12.50;;
73168;SDS011;61379;59.732;30.468;2024-02-16T11:43:29;14.02;;;12.63;;
73168;SDS011;61379;59.732;30.468;2024-02-16T11:45:55;13.63;;;11.93;;
73168;SDS011;61379;59.732;30.468;2024-02-16T11:48:24;13.15;;;12.15;;
73168;SDS011;61379;59.732;30.468;2024-02-16T11:51:00;12.52;;;11.60;;
73168;SDS011;61379;59.732;30.468;2024-02-16T11:53:27;13.95;;;12.75;;
73168;SDS011;61379;59.732;30.468;2024-02-16T11:55:54;13.38;;;12.38;;
73168;SDS011;61379;59.732;30.468;2024-02-16T11:58:21;12.88;;;11.77;;
73168;SDS011;61379;59.732;30.468;2024-02-16T12:00:48;12.80;;;11.73;;
73168;SDS011;61379;59.732;30.468;2024-02-16T12:03:18;14.48;;;13.27;;
73168;SDS011;61379;59.732;30.468;2024-02-16T12:05:49;14.48;;;13.07;;
73168;SDS011;61379;59.732;30.468;2024-02-16T12:08:17;13.80;;;12.55;;
73168;SDS011;61379;59.732;30.468;2024-02-16T12:10:46;13.27;;;12.27;;
73168;SDS011;61379;59.732;30.468;2024-02-16T12:13:13;14.82;;;13.40;;
73168;SDS011;61379;59.732;30.468;2024-02-16T12:15:39;14.15;;;12.93;;
73168;SDS011;61379;59.732;30.468;2024-02-16T12:18:06;14.43;;;13.05;;
73168;SDS011;61379;59.732;30.468;2024-02-16T12:20:33;10.93;;;9.85;;
73168;SDS011;61379;59.732;30.468;2024-02-16T12:23:10;14.10;;;12.55;;
73168;SDS011;61379;59.732;30.468;2024-02-16T12:25:38;13.02;;;11.82;;
73168;SDS011;61379;59.732;30.468;2024-02-16T12:28:05;12.23;;;11.13;;
73168;SDS011;61379;59.732;30.468;2024-02-16T12:30:33;12.70;;;11.70;;
73168;SDS011;61379;59.732;30.468;2024-02-16T12:32:59;13.50;;;12.50;;
73168;SDS011;61379;59.732;30.468;2024-02-16T12:35:26;14.50;;;13.02;;
73168;SDS011;61379;59.732;30.468;2024-02-16T12:37:53;12.07;;;11.27;;
73168;SDS011;61379;59.732;30.468;2024-02-16T12:40:20;13.30;;;12.13;;
73168;SDS011;61379;59.732;30.468;2024-02-16T12:42:48;12.98;;;11.90;;
73168;SDS011;61379;59.732;30.468;2024-02-16T12:45:15;12.05;;;11.15;;
73168;SDS011;61379;59.732;30.468;2024-02-16T12:47:42;13.05;;;12.10;;
73168;SDS011;61379;59.732;30.468;2024-02-16T12:50:10;11.38;;;10.18;;
73168;SDS011;61379;59.732;30.468;2024-02-16T12:52:37;13.85;;;12.57;;
73168;SDS011;61379;59.732;30.468;2024-02-16T12:55:04;12.70;;;11.65;;
73168;SDS011;61379;59.732;30.468;2024-02-16T12:57:31;12.57;;;11.57;;
73168;SDS011;61379;59.732;30.468;2024-02-16T12:59:59;11.75;;;10.95;;
73168;SDS011;61379;59.732;30.468;2024-02-16T13:02:26;12.45;;;11.57;;
73168;SDS011;61379;59.732;30.468;2024-02-16T13:04:54;13.20;;;12.13;;
73168;SDS011;61379;59.732;30.468;2024-02-16T13:07:21;12.63;;;11.50;;
73168;SDS011;61379;59.732;30.468;2024-02-16T13:09:47;12.10;;;10.95;;
73168;SDS011;61379;59.732;30.468;2024-02-16T13:12:16;12.38;;;11.27;;
73168;SDS011;61379;59.732;30.468;2024-02-16T13:14:42;11.90;;;10.90;;
73168;SDS011;61379;59.732;30.468;2024-02-16T13:17:10;11.18;;;10.48;;
73168;SDS011;61379;59.732;30.468;2024-02-16T13:19:37;10.95;;;10.20;;
73168;SDS011;61379;59.732;30.468;2024-02-16T13:22:04;11.18;;;10.38;;
73168;SDS011;61379;59.732;30.468;2024-02-16T13:24:31;11.30;;;10.40;;
73168;SDS011;61379;59.732;30.468;2024-02-16T13:26:59;11.45;;;10.30;;
73168;SDS011;61379;59.732;30.468;2024-02-16T13:29:26;11.85;;;10.75;;
73168;SDS011;61379;59.732;30.468;2024-02-16T13:31:52;12.32;;;11.32;;
73168;SDS011;61379;59.732;30.468;2024-02-16T13:34:21;8.70;;;8.00;;
73168;SDS011;61379;59.732;30.468;2024-02-16T13:36:48;11.80;;;10.80;;
73168;SDS011;61379;59.732;30.468;2024-02-16T13:39:14;10.80;;;10.02;;
73168;SDS011;61379;59.732;30.468;2024-02-16T13:41:42;11.45;;;10.57;;
73168;SDS011;61379;59.732;30.468;2024-02-16T13:44:11;11.88;;;10.88;;
73168;SDS011;61379;59.732;30.468;2024-02-16T13:46:38;12.75;;;11.65;;
73168;SDS011;61379;59.732;30.468;2024-02-16T13:49:05;12.32;;;11.23;;
73168;SDS011;61379;59.732;30.468;2024-02-16T13:51:33;11.95;;;10.85;;
73168;SDS011;61379;59.732;30.468;2024-02-16T13:54:00;11.45;;;10.55;;
73168;SDS011;61379;59.732;30.468;2024-02-16T13:56:26;13.18;;;12.07;;
73168;SDS011;61379;59.732;30.468;2024-02-16T13:58:53;12.40;;;11.27;;
73168;SDS011;61379;59.732;30.468;2024-02-16T14:01:20;10.57;;;9.70;;
73168;SDS011;61379;59.732;30.468;2024-02-16T14:03:47;12.27;;;11.18;;
73168;SDS011;61379;59.732;30.468;2024-02-16T14:06:16;12.82;;;11.80;;
73168;SDS011;61379;59.732;30.468;2024-02-16T14:08:44;12.23;;;11.07;;
73168;SDS011;61379;59.732;30.468;2024-02-16T14:11:13;11.38;;;10.27;;
73168;SDS011;61379;59.732;30.468;2024-02-16T14:13:39;11.23;;;10.32;;
73168;SDS011;61379;59.732;30.468;2024-02-16T14:16:06;11.05;;;10.35;;
73168;SDS011;61379;59.732;30.468;2024-02-16T14:18:35;12.00;;;11.10;;